sensor_id;sensor_type;location;lat;lon;timestamp;P1;durP1;ratioP1;P2;durP2;ratioP2
46463;SDS011;32161;48.148;-1.554;2023-06-10T00:02:23;23.35;;;7.30;;
46463;SDS011;32161;48.148;-1.554;2023-06-10T00:04:52;15.38;;;7.47;;
46463;SDS011;32161;48.148;-1.554;2023-06-10T00:07:20;17.10;;;7.28;;
46463;SDS011;32161;48.148;-1.554;2023-06-10T00:09:48;16.33;;;7.43;;
46463;SDS011;32161;48.148;-1.554;2023-06-10T00:12:15;12.90;;;8.13;;
46463;SDS011;32161;48.148;-1.554;2023-06-10T00:14:45;12.43;;;8.15;;
46463;SDS011;32161;48.148;-1.554;2023-06-10T00:17:15;10.00;;;6.65;;
46463;SDS011;32161;48.148;-1.554;2023-06-10T00:19:45;9.00;;;7.07;;
46463;SDS011;32161;48.148;-1.554;2023-06-10T00:22:12;17.67;;;7.10;;
46463;SDS011;32161;48.148;-1.554;2023-06-10T00:24:40;20.63;;;7.55;;
46463;SDS011;32161;48.148;-1.554;2023-06-10T00:27:08;9.23;;;7.18;;
46463;SDS011;32161;48.148;-1.554;2023-06-10T00:29:35;12.02;;;7.25;;
46463;SDS011;32161;48.148;-1.554;2023-06-10T00:32:04;14.23;;;8.65;;
46463;SDS011;32161;48.148;-1.554;2023-06-10T00:34:32;11.93;;;8.23;;
46463;SDS011;32161;48.148;-1.554;2023-06-10T00:37:02;10.95;;;8.25;;
46463;SDS011;32161;48.148;-1.554;2023-06-10T00:39:30;12.52;;;8.30;;
46463;SDS011;32161;48.148;-1.554;2023-06-10T00:41:57;14.20;;;8.20;;
46463;SDS011;32161;48.148;-1.554;2023-06-10T00:44:25;10.95;;;7.97;;
46463;SDS011;32161;48.148;-1.554;2023-06-10T00:46:53;12.55;;;8.02;;
46463;SDS011;32161;48.148;-1.554;2023-06-10T00:49:21;14.63;;;8.30;;
46463;SDS011;32161;48.148;-1.554;2023-06-10T00:51:50;12.50;;;8.30;;
46463;SDS011;32161;48.148;-1.554;2023-06-10T00:54:20;11.50;;;7.45;;
46463;SDS011;32161;48.148;-1.554;2023-06-10T00:56:48;10.65;;;7.30;;
46463;SDS011;32161;48.148;-1.554;2023-06-10T00:59:16;9.32;;;8.05;;
46463;SDS011;32161;48.148;-1.554;2023-06-10T01:01:45;16.95;;;7.72;;
46463;SDS011;32161;48.148;-1.554;2023-06-10T01:04:13;22.98;;;9.15;;
46463;SDS011;32161;48.148;-1.554;2023-06-10T01:06:48;18.80;;;8.10;;
46463;SDS011;32161;48.148;-1.554;2023-06-10T01:09:28;14.70;;;8.23;;
46463;SDS011;32161;48.148;-1.554;2023-06-10T01:14:40;9.77;;;8.73;;
46463;SDS011;32161;48.148;-1.554;2023-06-10T01:17:10;14.15;;;8.30;;
46463;SDS011;32161;48.148;-1.554;2023-06-10T01:19:41;16.65;;;7.97;;
46463;SDS011;32161;48.148;-1.554;2023-06-10T01:22:11;17.83;;;8.13;;
46463;SDS011;32161;48.148;-1.554;2023-06-10T01:24:41;16.00;;;8.23;;
46463;SDS011;32161;48.148;-1.554;2023-06-10T01:27:12;22.00;;;9.25;;
46463;SDS011;32161;48.148;-1.554;2023-06-10T01:29:43;25.02;;;9.07;;
46463;SDS011;32161;48.148;-1.554;2023-06-10T01:32:18;17.08;;;8.00;;
46463;SDS011;32161;48.148;-1.554;2023-06-10T01:34:53;13.98;;;8.00;;
46463;SDS011;32161;48.148;-1.554;2023-06-10T01:37:25;21.98;;;8.73;;
46463;SDS011;32161;48.148;-1.554;2023-06-10T01:39:54;15.13;;;8.27;;
46463;SDS011;32161;48.148;-1.554;2023-06-10T01:42:24;15.32;;;8.82;;
46463;SDS011;32161;48.148;-1.554;2023-06-10T01:44:52;13.60;;;8.68;;
46463;SDS011;32161;48.148;-1.554;2023-06-10T01:47:20;15.73;;;7.95;;
46463;SDS011;32161;48.148;-1.554;2023-06-10T01:49:47;9.85;;;8.32;;
46463;SDS011;32161;48.148;-1.554;2023-06-10T01:52:15;21.23;;;8.73;;
46463;SDS011;32161;48.148;-1.554;2023-06-10T01:54:44;17.45;;;8.43;;
46463;SDS011;32161;48.148;-1.554;2023-06-10T01:57:12;14.75;;;8.43;;
46463;SDS011;32161;48.148;-1.554;2023-06-10T01:59:39;9.70;;;7.10;;
46463;SDS011;32161;48.148;-1.554;2023-06-10T02:02:09;12.52;;;7.55;;
46463;SDS011;32161;48.148;-1.554;2023-06-10T02:04:37;9.60;;;8.48;;
46463;SDS011;32161;48.148;-1.554;2023-06-10T02:07:05;7.97;;;7.20;;
46463;SDS011;32161;48.148;-1.554;2023-06-10T02:09:32;11.95;;;7.90;;
46463;SDS011;32161;48.148;-1.554;2023-06-10T02:12:03;9.05;;;8.23;;
46463;SDS011;32161;48.148;-1.554;2023-06-10T02:14:32;15.75;;;9.27;;
46463;SDS011;32161;48.148;-1.554;2023-06-10T02:17:00;9.65;;;8.55;;
46463;SDS011;32161;48.148;-1.554;2023-06-10T02:19:28;13.85;;;8.95;;
46463;SDS011;32161;48.148;-1.554;2023-06-10T02:21:56;12.68;;;9.00;;
46463;SDS011;32161;48.148;-1.554;2023-06-10T02:24:23;13.15;;;8.93;;
46463;SDS011;32161;48.148;-1.554;2023-06-10T02:26:51;16.58;;;10.10;;
46463;SDS011;32161;48.148;-1.554;2023-06-10T02:29:20;10.82;;;9.25;;
46463;SDS011;32161;48.148;-1.554;2023-06-10T02:31:47;14.88;;;9.70;;
46463;SDS011;32161;48.148;-1.554;2023-06-10T02:34:15;10.13;;;9.15;;
46463;SDS011;32161;48.148;-1.554;2023-06-10T02:36:42;12.40;;;8.15;;
46463;SDS011;32161;48.148;-1.554;2023-06-10T02:39:10;10.18;;;7.68;;
46463;SDS011;32161;48.148;-1.554;2023-06-10T02:41:38;12.13;;;7.90;;
46463;SDS011;32161;48.148;-1.554;2023-06-10T02:44:05;12.45;;;8.85;;
46463;SDS011;32161;48.148;-1.554;2023-06-10T02:46:34;10.13;;;9.05;;
46463;SDS011;32161;48.148;-1.554;2023-06-10T02:49:02;9.80;;;8.13;;
46463;SDS011;32161;48.148;-1.554;2023-06-10T02:51:29;10.15;;;9.15;;
46463;SDS011;32161;48.148;-1.554;2023-06-10T02:53:57;10.73;;;9.25;;
46463;SDS011;32161;48.148;-1.554;2023-06-10T02:56:25;14.23;;;9.35;;
46463;SDS011;32161;48.148;-1.554;2023-06-10T02:58:52;12.30;;;9.60;;
46463;SDS011;32161;48.148;-1.554;2023-06-10T03:01:20;13.85;;;8.57;;
46463;SDS011;32161;48.148;-1.554;2023-06-10T03:03:49;12.60;;;8.60;;
46463;SDS011;32161;48.148;-1.554;2023-06-10T03:06:17;12.27;;;9.18;;
46463;SDS011;32161;48.148;-1.554;2023-06-10T03:08:45;14.52;;;9.15;;
46463;SDS011;32161;48.148;-1.554;2023-06-10T03:11:12;21.40;;;10.77;;
46463;SDS011;32161;48.148;-1.554;2023-06-10T03:13:40;23.65;;;9.70;;
46463;SDS011;32161;48.148;-1.554;2023-06-10T03:16:08;21.63;;;9.27;;
46463;SDS011;32161;48.148;-1.554;2023-06-10T03:18:37;18.33;;;8.40;;
46463;SDS011;32161;48.148;-1.554;2023-06-10T03:21:06;20.98;;;9.02;;
46463;SDS011;32161;48.148;-1.554;2023-06-10T03:23:35;24.73;;;8.85;;
46463;SDS011;32161;48.148;-1.554;2023-06-10T03:26:03;18.52;;;8.80;;
46463;SDS011;32161;48.148;-1.554;2023-06-10T03:28:31;16.23;;;8.77;;
46463;SDS011;32161;48.148;-1.554;2023-06-10T03:30:58;16.38;;;8.55;;
46463;SDS011;32161;48.148;-1.554;2023-06-10T03:33:26;18.08;;;9.35;;
46463;SDS011;32161;48.148;-1.554;2023-06-10T03:35:53;17.50;;;9.75;;
46463;SDS011;32161;48.148;-1.554;2023-06-10T03:38:22;17.17;;;8.70;;
46463;SDS011;32161;48.148;-1.554;2023-06-10T03:40:50;14.15;;;8.95;;
46463;SDS011;32161;48.148;-1.554;2023-06-10T03:43:17;10.60;;;9.07;;
46463;SDS011;32161;48.148;-1.554;2023-06-10T03:45:45;12.98;;;8.70;;
46463;SDS011;32161;48.148;-1.554;2023-06-10T03:48:14;17.83;;;8.85;;
46463;SDS011;32161;48.148;-1.554;2023-06-10T03:50:42;10.50;;;8.52;;
46463;SDS011;32161;48.148;-1.554;2023-06-10T03:53:09;11.75;;;8.48;;
46463;SDS011;32161;48.148;-1.554;2023-06-10T03:55:38;25.17;;;8.98;;
46463;SDS011;32161;48.148;-1.554;2023-06-10T03:58:06;13.02;;;9.45;;
46463;SDS011;32161;48.148;-1.554;2023-06-10T04:00:34;16.55;;;8.93;;
46463;SDS011;32161;48.148;-1.554;2023-06-10T04:03:06;13.32;;;8.93;;
46463;SDS011;32161;48.148;-1.554;2023-06-10T04:05:39;15.65;;;9.75;;
46463;SDS011;32161;48.148;-1.554;2023-06-10T04:08:07;14.52;;;9.35;;
46463;SDS011;32161;48.148;-1.554;2023-06-10T04:10:35;12.52;;;9.40;;
46463;SDS011;32161;48.148;-1.554;2023-06-10T04:13:04;14.02;;;9.63;;
46463;SDS011;32161;48.148;-1.554;2023-06-10T04:15:31;11.40;;;8.48;;
46463;SDS011;32161;48.148;-1.554;2023-06-10T04:17:59;10.48;;;9.23;;
46463;SDS011;32161;48.148;-1.554;2023-06-10T04:20:27;13.15;;;9.68;;
46463;SDS011;32161;48.148;-1.554;2023-06-10T04:22:55;11.68;;;9.38;;
46463;SDS011;32161;48.148;-1.554;2023-06-10T04:25:22;17.90;;;10.90;;
46463;SDS011;32161;48.148;-1.554;2023-06-10T04:27:51;23.48;;;11.30;;
46463;SDS011;32161;48.148;-1.554;2023-06-10T04:30:20;15.23;;;11.95;;
46463;SDS011;32161;48.148;-1.554;2023-06-10T04:32:48;17.08;;;12.10;;
46463;SDS011;32161;48.148;-1.554;2023-06-10T04:35:15;19.75;;;12.07;;
46463;SDS011;32161;48.148;-1.554;2023-06-10T04:37:43;14.60;;;12.00;;
46463;SDS011;32161;48.148;-1.554;2023-06-10T04:40:11;19.42;;;12.25;;
46463;SDS011;32161;48.148;-1.554;2023-06-10T04:42:38;15.70;;;12.45;;
46463;SDS011;32161;48.148;-1.554;2023-06-10T04:45:07;15.60;;;12.32;;
46463;SDS011;32161;48.148;-1.554;2023-06-10T04:47:37;20.38;;;13.13;;
46463;SDS011;32161;48.148;-1.554;2023-06-10T04:50:05;15.93;;;11.38;;
46463;SDS011;32161;48.148;-1.554;2023-06-10T04:52:33;20.52;;;13.35;;
46463;SDS011;32161;48.148;-1.554;2023-06-10T04:55:01;19.92;;;13.40;;
46463;SDS011;32161;48.148;-1.554;2023-06-10T04:57:28;16.50;;;13.35;;
46463;SDS011;32161;48.148;-1.554;2023-06-10T04:59:56;18.00;;;14.10;;
46463;SDS011;32161;48.148;-1.554;2023-06-10T05:02:23;17.15;;;14.55;;
46463;SDS011;32161;48.148;-1.554;2023-06-10T05:04:52;21.75;;;13.55;;
46463;SDS011;32161;48.148;-1.554;2023-06-10T05:07:21;19.30;;;15.07;;
46463;SDS011;32161;48.148;-1.554;2023-06-10T05:09:49;16.95;;;14.23;;
46463;SDS011;32161;48.148;-1.554;2023-06-10T05:12:16;19.10;;;14.68;;
46463;SDS011;32161;48.148;-1.554;2023-06-10T05:14:44;19.95;;;14.98;;
46463;SDS011;32161;48.148;-1.554;2023-06-10T05:17:11;17.08;;;14.70;;
46463;SDS011;32161;48.148;-1.554;2023-06-10T05:19:39;20.20;;;15.20;;
46463;SDS011;32161;48.148;-1.554;2023-06-10T05:22:09;17.05;;;15.07;;
46463;SDS011;32161;48.148;-1.554;2023-06-10T05:24:38;24.67;;;15.68;;
46463;SDS011;32161;48.148;-1.554;2023-06-10T05:27:06;16.60;;;14.10;;
46463;SDS011;32161;48.148;-1.554;2023-06-10T05:29:34;24.80;;;15.88;;
46463;SDS011;32161;48.148;-1.554;2023-06-10T05:32:01;22.92;;;15.50;;
46463;SDS011;32161;48.148;-1.554;2023-06-10T05:34:29;17.52;;;15.77;;
46463;SDS011;32161;48.148;-1.554;2023-06-10T05:36:57;18.77;;;14.15;;
46463;SDS011;32161;48.148;-1.554;2023-06-10T05:39:26;21.33;;;14.25;;
46463;SDS011;32161;48.148;-1.554;2023-06-10T05:41:54;20.40;;;15.68;;
46463;SDS011;32161;48.148;-1.554;2023-06-10T05:44:24;20.17;;;14.82;;
46463;SDS011;32161;48.148;-1.554;2023-06-10T05:46:51;21.30;;;15.25;;
46463;SDS011;32161;48.148;-1.554;2023-06-10T05:49:19;20.25;;;15.52;;
46463;SDS011;32161;48.148;-1.554;2023-06-10T05:51:47;21.90;;;14.38;;
46463;SDS011;32161;48.148;-1.554;2023-06-10T05:54:14;24.70;;;16.00;;
46463;SDS011;32161;48.148;-1.554;2023-06-10T05:56:43;21.15;;;16.17;;
46463;SDS011;32161;48.148;-1.554;2023-06-10T05:59:11;30.52;;;17.65;;
46463;SDS011;32161;48.148;-1.554;2023-06-10T06:01:39;24.17;;;15.73;;
46463;SDS011;32161;48.148;-1.554;2023-06-10T06:04:06;20.35;;;15.25;;
46463;SDS011;32161;48.148;-1.554;2023-06-10T06:06:34;24.48;;;15.43;;
46463;SDS011;32161;48.148;-1.554;2023-06-10T06:09:05;18.77;;;16.45;;
46463;SDS011;32161;48.148;-1.554;2023-06-10T06:11:33;22.85;;;16.02;;
46463;SDS011;32161;48.148;-1.554;2023-06-10T06:14:03;19.90;;;15.45;;
46463;SDS011;32161;48.148;-1.554;2023-06-10T06:16:30;17.45;;;14.32;;
46463;SDS011;32161;48.148;-1.554;2023-06-10T06:18:58;18.00;;;14.65;;
46463;SDS011;32161;48.148;-1.554;2023-06-10T06:21:26;19.08;;;15.57;;
46463;SDS011;32161;48.148;-1.554;2023-06-10T06:23:53;22.17;;;16.42;;
46463;SDS011;32161;48.148;-1.554;2023-06-10T06:26:21;17.77;;;14.85;;
46463;SDS011;32161;48.148;-1.554;2023-06-10T06:28:49;19.55;;;15.77;;
46463;SDS011;32161;48.148;-1.554;2023-06-10T06:31:18;23.15;;;15.88;;
46463;SDS011;32161;48.148;-1.554;2023-06-10T06:33:46;23.80;;;16.40;;
46463;SDS011;32161;48.148;-1.554;2023-06-10T06:36:13;26.63;;;16.30;;
46463;SDS011;32161;48.148;-1.554;2023-06-10T06:38:41;23.20;;;15.70;;
46463;SDS011;32161;48.148;-1.554;2023-06-10T06:41:08;27.48;;;16.33;;
46463;SDS011;32161;48.148;-1.554;2023-06-10T06:43:36;22.30;;;17.17;;
46463;SDS011;32161;48.148;-1.554;2023-06-10T06:46:03;23.88;;;16.25;;
46463;SDS011;32161;48.148;-1.554;2023-06-10T06:48:33;22.88;;;17.13;;
46463;SDS011;32161;48.148;-1.554;2023-06-10T06:51:00;19.58;;;16.58;;
46463;SDS011;32161;48.148;-1.554;2023-06-10T06:53:28;21.95;;;15.20;;
46463;SDS011;32161;48.148;-1.554;2023-06-10T06:55:55;17.77;;;15.93;;
46463;SDS011;32161;48.148;-1.554;2023-06-10T06:58:23;26.45;;;15.27;;
46463;SDS011;32161;48.148;-1.554;2023-06-10T07:00:51;22.20;;;15.98;;
46463;SDS011;32161;48.148;-1.554;2023-06-10T07:03:19;20.35;;;15.55;;
46463;SDS011;32161;48.148;-1.554;2023-06-10T07:05:48;17.23;;;15.07;;
46463;SDS011;32161;48.148;-1.554;2023-06-10T07:08:15;16.85;;;15.13;;
46463;SDS011;32161;48.148;-1.554;2023-06-10T07:10:43;21.55;;;15.50;;
46463;SDS011;32161;48.148;-1.554;2023-06-10T07:13:10;18.45;;;15.30;;
46463;SDS011;32161;48.148;-1.554;2023-06-10T07:15:38;22.52;;;16.35;;
46463;SDS011;32161;48.148;-1.554;2023-06-10T07:18:06;23.40;;;17.02;;
46463;SDS011;32161;48.148;-1.554;2023-06-10T07:20:33;20.00;;;16.00;;
46463;SDS011;32161;48.148;-1.554;2023-06-10T07:23:02;21.90;;;16.20;;
46463;SDS011;32161;48.148;-1.554;2023-06-10T07:25:30;21.27;;;16.00;;
46463;SDS011;32161;48.148;-1.554;2023-06-10T07:27:58;17.70;;;15.80;;
46463;SDS011;32161;48.148;-1.554;2023-06-10T07:30:25;20.65;;;15.50;;
46463;SDS011;32161;48.148;-1.554;2023-06-10T07:32:54;19.20;;;14.68;;
46463;SDS011;32161;48.148;-1.554;2023-06-10T07:35:22;20.75;;;15.55;;
46463;SDS011;32161;48.148;-1.554;2023-06-10T07:37:50;23.40;;;16.25;;
46463;SDS011;32161;48.148;-1.554;2023-06-10T07:40:21;19.08;;;15.13;;
46463;SDS011;32161;48.148;-1.554;2023-06-10T07:42:48;22.08;;;15.23;;
46463;SDS011;32161;48.148;-1.554;2023-06-10T07:45:18;22.50;;;16.85;;
46463;SDS011;32161;48.148;-1.554;2023-06-10T07:47:45;22.20;;;16.15;;
46463;SDS011;32161;48.148;-1.554;2023-06-10T07:50:13;22.13;;;15.88;;
46463;SDS011;32161;48.148;-1.554;2023-06-10T07:52:41;19.52;;;15.93;;
46463;SDS011;32161;48.148;-1.554;2023-06-10T07:55:08;21.65;;;16.55;;
46463;SDS011;32161;48.148;-1.554;2023-06-10T07:57:37;22.50;;;16.13;;
46463;SDS011;32161;48.148;-1.554;2023-06-10T08:00:05;23.35;;;15.77;;
46463;SDS011;32161;48.148;-1.554;2023-06-10T08:02:34;24.65;;;17.00;;
46463;SDS011;32161;48.148;-1.554;2023-06-10T08:05:03;20.30;;;17.23;;
46463;SDS011;32161;48.148;-1.554;2023-06-10T08:07:31;20.98;;;16.55;;
46463;SDS011;32161;48.148;-1.554;2023-06-10T08:09:58;25.65;;;16.75;;
46463;SDS011;32161;48.148;-1.554;2023-06-10T08:12:27;21.70;;;17.20;;
46463;SDS011;32161;48.148;-1.554;2023-06-10T08:14:56;22.20;;;15.77;;
46463;SDS011;32161;48.148;-1.554;2023-06-10T08:17:24;22.58;;;17.30;;
46463;SDS011;32161;48.148;-1.554;2023-06-10T08:19:51;19.42;;;15.77;;
46463;SDS011;32161;48.148;-1.554;2023-06-10T08:22:19;22.02;;;16.58;;
46463;SDS011;32161;48.148;-1.554;2023-06-10T08:24:46;19.33;;;15.73;;
46463;SDS011;32161;48.148;-1.554;2023-06-10T08:27:14;20.50;;;15.77;;
46463;SDS011;32161;48.148;-1.554;2023-06-10T08:29:42;19.13;;;16.63;;
46463;SDS011;32161;48.148;-1.554;2023-06-10T08:32:12;17.58;;;15.13;;
46463;SDS011;32161;48.148;-1.554;2023-06-10T08:34:42;17.65;;;15.52;;
46463;SDS011;32161;48.148;-1.554;2023-06-10T08:37:10;18.75;;;16.23;;
46463;SDS011;32161;48.148;-1.554;2023-06-10T08:39:37;20.27;;;16.75;;
46463;SDS011;32161;48.148;-1.554;2023-06-10T08:42:09;22.38;;;15.15;;
46463;SDS011;32161;48.148;-1.554;2023-06-10T08:44:48;17.40;;;15.18;;
46463;SDS011;32161;48.148;-1.554;2023-06-10T08:47:22;22.63;;;17.15;;
46463;SDS011;32161;48.148;-1.554;2023-06-10T08:49:52;18.83;;;16.83;;
46463;SDS011;32161;48.148;-1.554;2023-06-10T08:52:22;23.95;;;16.77;;
46463;SDS011;32161;48.148;-1.554;2023-06-10T08:54:54;17.85;;;16.00;;
46463;SDS011;32161;48.148;-1.554;2023-06-10T08:57:26;19.45;;;16.80;;
46463;SDS011;32161;48.148;-1.554;2023-06-10T08:59:54;17.83;;;15.98;;
46463;SDS011;32161;48.148;-1.554;2023-06-10T09:02:24;17.77;;;15.80;;
46463;SDS011;32161;48.148;-1.554;2023-06-10T09:04:53;17.45;;;15.50;;
46463;SDS011;32161;48.148;-1.554;2023-06-10T09:07:23;20.15;;;16.73;;
46463;SDS011;32161;48.148;-1.554;2023-06-10T09:09:51;17.02;;;15.30;;
46463;SDS011;32161;48.148;-1.554;2023-06-10T09:12:19;21.50;;;16.20;;
46463;SDS011;32161;48.148;-1.554;2023-06-10T09:14:47;20.35;;;16.95;;
46463;SDS011;32161;48.148;-1.554;2023-06-10T09:17:15;18.60;;;16.60;;
46463;SDS011;32161;48.148;-1.554;2023-06-10T09:19:44;17.42;;;15.15;;
46463;SDS011;32161;48.148;-1.554;2023-06-10T09:22:12;16.45;;;14.75;;
46463;SDS011;32161;48.148;-1.554;2023-06-10T09:24:40;20.15;;;15.73;;
46463;SDS011;32161;48.148;-1.554;2023-06-10T09:27:08;17.63;;;14.82;;
46463;SDS011;32161;48.148;-1.554;2023-06-10T09:29:45;17.50;;;15.77;;
46463;SDS011;32161;48.148;-1.554;2023-06-10T09:32:14;18.80;;;16.90;;
46463;SDS011;32161;48.148;-1.554;2023-06-10T09:34:45;17.23;;;15.73;;
46463;SDS011;32161;48.148;-1.554;2023-06-10T09:37:20;18.58;;;16.45;;
46463;SDS011;32161;48.148;-1.554;2023-06-10T09:40:04;18.55;;;16.75;;
46463;SDS011;32161;48.148;-1.554;2023-06-10T09:42:35;20.35;;;18.20;;
46463;SDS011;32161;48.148;-1.554;2023-06-10T09:45:05;19.10;;;17.17;;
46463;SDS011;32161;48.148;-1.554;2023-06-10T09:47:34;19.27;;;17.23;;
46463;SDS011;32161;48.148;-1.554;2023-06-10T09:50:03;20.50;;;17.48;;
46463;SDS011;32161;48.148;-1.554;2023-06-10T09:52:32;19.58;;;17.73;;
46463;SDS011;32161;48.148;-1.554;2023-06-10T09:55:00;22.23;;;18.35;;
46463;SDS011;32161;48.148;-1.554;2023-06-10T09:57:30;20.98;;;18.48;;
46463;SDS011;32161;48.148;-1.554;2023-06-10T09:59:59;22.38;;;18.80;;
46463;SDS011;32161;48.148;-1.554;2023-06-10T10:02:30;21.20;;;18.25;;
46463;SDS011;32161;48.148;-1.554;2023-06-10T10:05:01;20.42;;;18.30;;
46463;SDS011;32161;48.148;-1.554;2023-06-10T10:07:31;22.52;;;18.40;;
46463;SDS011;32161;48.148;-1.554;2023-06-10T10:10:01;23.38;;;18.95;;
46463;SDS011;32161;48.148;-1.554;2023-06-10T10:12:28;19.67;;;17.67;;
46463;SDS011;32161;48.148;-1.554;2023-06-10T10:14:57;20.98;;;18.25;;
46463;SDS011;32161;48.148;-1.554;2023-06-10T10:17:25;21.17;;;19.10;;
46463;SDS011;32161;48.148;-1.554;2023-06-10T10:19:53;22.38;;;17.83;;
46463;SDS011;32161;48.148;-1.554;2023-06-10T10:22:31;18.48;;;16.58;;
46463;SDS011;32161;48.148;-1.554;2023-06-10T10:25:05;19.85;;;16.65;;
46463;SDS011;32161;48.148;-1.554;2023-06-10T10:27:40;17.73;;;15.93;;
46463;SDS011;32161;48.148;-1.554;2023-06-10T10:30:14;18.25;;;16.38;;
46463;SDS011;32161;48.148;-1.554;2023-06-10T10:32:45;19.65;;;15.93;;
46463;SDS011;32161;48.148;-1.554;2023-06-10T10:35:23;17.52;;;15.48;;
46463;SDS011;32161;48.148;-1.554;2023-06-10T10:37:53;16.77;;;15.27;;
46463;SDS011;32161;48.148;-1.554;2023-06-10T10:40:21;16.00;;;14.45;;
46463;SDS011;32161;48.148;-1.554;2023-06-10T10:42:51;17.10;;;14.05;;
46463;SDS011;32161;48.148;-1.554;2023-06-10T10:45:21;19.17;;;14.85;;
46463;SDS011;32161;48.148;-1.554;2023-06-10T10:47:52;17.77;;;15.85;;
46463;SDS011;32161;48.148;-1.554;2023-06-10T10:50:22;17.00;;;15.23;;
46463;SDS011;32161;48.148;-1.554;2023-06-10T10:52:52;19.10;;;15.10;;
46463;SDS011;32161;48.148;-1.554;2023-06-10T10:55:23;16.92;;;15.32;;
46463;SDS011;32161;48.148;-1.554;2023-06-10T10:57:56;18.20;;;15.52;;
46463;SDS011;32161;48.148;-1.554;2023-06-10T11:00:27;17.48;;;15.32;;
46463;SDS011;32161;48.148;-1.554;2023-06-10T11:03:00;18.13;;;15.93;;
46463;SDS011;32161;48.148;-1.554;2023-06-10T11:05:37;14.32;;;12.95;;
46463;SDS011;32161;48.148;-1.554;2023-06-10T11:08:10;17.13;;;14.80;;
46463;SDS011;32161;48.148;-1.554;2023-06-10T11:10:39;15.98;;;14.30;;
46463;SDS011;32161;48.148;-1.554;2023-06-10T11:13:18;17.98;;;13.98;;
46463;SDS011;32161;48.148;-1.554;2023-06-10T11:15:47;16.23;;;14.45;;
46463;SDS011;32161;48.148;-1.554;2023-06-10T11:18:20;16.60;;;14.18;;
46463;SDS011;32161;48.148;-1.554;2023-06-10T11:20:57;16.10;;;14.38;;
46463;SDS011;32161;48.148;-1.554;2023-06-10T11:23:37;18.02;;;14.57;;
46463;SDS011;32161;48.148;-1.554;2023-06-10T11:26:11;15.52;;;13.93;;
46463;SDS011;32161;48.148;-1.554;2023-06-10T11:28:40;16.92;;;15.15;;
46463;SDS011;32161;48.148;-1.554;2023-06-10T11:31:09;16.40;;;14.15;;
46463;SDS011;32161;48.148;-1.554;2023-06-10T11:33:46;19.80;;;14.63;;
46463;SDS011;32161;48.148;-1.554;2023-06-10T11:36:14;19.67;;;14.75;;
46463;SDS011;32161;48.148;-1.554;2023-06-10T11:38:44;17.20;;;15.48;;
46463;SDS011;32161;48.148;-1.554;2023-06-10T11:41:12;17.63;;;15.73;;
46463;SDS011;32161;48.148;-1.554;2023-06-10T11:43:42;16.40;;;14.68;;
46463;SDS011;32161;48.148;-1.554;2023-06-10T11:46:10;20.33;;;14.88;;
46463;SDS011;32161;48.148;-1.554;2023-06-10T11:48:38;15.10;;;13.60;;
46463;SDS011;32161;48.148;-1.554;2023-06-10T11:51:05;17.70;;;14.80;;
46463;SDS011;32161;48.148;-1.554;2023-06-10T11:53:33;17.58;;;15.18;;
46463;SDS011;32161;48.148;-1.554;2023-06-10T11:56:03;18.27;;;14.88;;
46463;SDS011;32161;48.148;-1.554;2023-06-10T11:58:30;17.33;;;15.45;;
46463;SDS011;32161;48.148;-1.554;2023-06-10T12:00:58;19.15;;;14.88;;
46463;SDS011;32161;48.148;-1.554;2023-06-10T12:03:26;17.40;;;15.23;;
46463;SDS011;32161;48.148;-1.554;2023-06-10T12:06:03;15.85;;;14.25;;
46463;SDS011;32161;48.148;-1.554;2023-06-10T12:08:32;15.98;;;13.80;;
46463;SDS011;32161;48.148;-1.554;2023-06-10T12:11:08;13.48;;;11.93;;
46463;SDS011;32161;48.148;-1.554;2023-06-10T12:13:36;13.93;;;12.52;;
46463;SDS011;32161;48.148;-1.554;2023-06-10T12:16:12;14.32;;;12.82;;
46463;SDS011;32161;48.148;-1.554;2023-06-10T12:18:39;15.32;;;11.52;;
46463;SDS011;32161;48.148;-1.554;2023-06-10T12:21:19;14.60;;;12.93;;
46463;SDS011;32161;48.148;-1.554;2023-06-10T12:26:36;11.60;;;10.35;;
46463;SDS011;32161;48.148;-1.554;2023-06-10T12:29:19;13.93;;;11.60;;
46463;SDS011;32161;48.148;-1.554;2023-06-10T12:31:54;12.98;;;11.35;;
46463;SDS011;32161;48.148;-1.554;2023-06-10T12:34:33;11.30;;;10.20;;
46463;SDS011;32161;48.148;-1.554;2023-06-10T12:37:04;10.65;;;9.60;;
46463;SDS011;32161;48.148;-1.554;2023-06-10T12:39:39;12.57;;;9.88;;
46463;SDS011;32161;48.148;-1.554;2023-06-10T12:42:09;10.30;;;8.90;;
46463;SDS011;32161;48.148;-1.554;2023-06-10T12:44:39;8.52;;;7.72;;
46463;SDS011;32161;48.148;-1.554;2023-06-10T12:47:08;11.45;;;9.15;;
46463;SDS011;32161;48.148;-1.554;2023-06-10T12:49:37;8.77;;;7.93;;
46463;SDS011;32161;48.148;-1.554;2023-06-10T12:52:05;11.10;;;9.90;;
46463;SDS011;32161;48.148;-1.554;2023-06-10T12:54:33;11.23;;;10.05;;
46463;SDS011;32161;48.148;-1.554;2023-06-10T12:57:01;13.10;;;10.45;;
46463;SDS011;32161;48.148;-1.554;2023-06-10T12:59:31;10.20;;;9.23;;
46463;SDS011;32161;48.148;-1.554;2023-06-10T13:01:58;10.32;;;9.23;;
46463;SDS011;32161;48.148;-1.554;2023-06-10T13:04:26;10.52;;;9.05;;
46463;SDS011;32161;48.148;-1.554;2023-06-10T13:06:53;10.15;;;9.13;;
46463;SDS011;32161;48.148;-1.554;2023-06-10T13:09:21;11.32;;;10.13;;
46463;SDS011;32161;48.148;-1.554;2023-06-10T13:11:49;11.30;;;9.98;;
46463;SDS011;32161;48.148;-1.554;2023-06-10T13:14:17;11.18;;;9.95;;
46463;SDS011;32161;48.148;-1.554;2023-06-10T13:16:46;10.10;;;9.13;;
46463;SDS011;32161;48.148;-1.554;2023-06-10T13:19:14;10.73;;;8.68;;
46463;SDS011;32161;48.148;-1.554;2023-06-10T13:21:42;8.73;;;7.85;;
46463;SDS011;32161;48.148;-1.554;2023-06-10T13:24:10;11.00;;;7.90;;
46463;SDS011;32161;48.148;-1.554;2023-06-10T13:26:37;8.07;;;7.38;;
46463;SDS011;32161;48.148;-1.554;2023-06-10T13:29:05;8.07;;;7.38;;
46463;SDS011;32161;48.148;-1.554;2023-06-10T13:31:38;7.93;;;7.22;;
46463;SDS011;32161;48.148;-1.554;2023-06-10T13:34:08;8.07;;;7.47;;
46463;SDS011;32161;48.148;-1.554;2023-06-10T13:36:36;7.43;;;6.72;;
46463;SDS011;32161;48.148;-1.554;2023-06-10T13:39:04;8.75;;;7.93;;
46463;SDS011;32161;48.148;-1.554;2023-06-10T13:41:31;7.60;;;6.95;;
46463;SDS011;32161;48.148;-1.554;2023-06-10T13:43:59;8.75;;;7.95;;
46463;SDS011;32161;48.148;-1.554;2023-06-10T13:46:26;6.93;;;6.22;;
46463;SDS011;32161;48.148;-1.554;2023-06-10T13:48:54;8.43;;;7.57;;
46463;SDS011;32161;48.148;-1.554;2023-06-10T13:51:23;7.53;;;6.93;;
46463;SDS011;32161;48.148;-1.554;2023-06-10T13:53:50;7.70;;;7.10;;
46463;SDS011;32161;48.148;-1.554;2023-06-10T13:56:18;7.30;;;5.65;;
46463;SDS011;32161;48.148;-1.554;2023-06-10T13:58:46;6.88;;;6.18;;
46463;SDS011;32161;48.148;-1.554;2023-06-10T14:01:13;5.97;;;5.47;;
46463;SDS011;32161;48.148;-1.554;2023-06-10T14:03:41;6.80;;;6.30;;
46463;SDS011;32161;48.148;-1.554;2023-06-10T14:06:08;6.63;;;6.03;;
46463;SDS011;32161;48.148;-1.554;2023-06-10T14:08:39;6.63;;;6.15;;
46463;SDS011;32161;48.148;-1.554;2023-06-10T14:11:07;7.82;;;7.13;;
46463;SDS011;32161;48.148;-1.554;2023-06-10T14:13:35;7.05;;;6.18;;
46463;SDS011;32161;48.148;-1.554;2023-06-10T14:16:03;6.35;;;5.65;;
46463;SDS011;32161;48.148;-1.554;2023-06-10T14:18:31;6.15;;;5.75;;
46463;SDS011;32161;48.148;-1.554;2023-06-10T14:20:58;6.18;;;5.57;;
46463;SDS011;32161;48.148;-1.554;2023-06-10T14:23:26;5.68;;;5.18;;
46463;SDS011;32161;48.148;-1.554;2023-06-10T14:25:55;8.18;;;6.50;;
46463;SDS011;32161;48.148;-1.554;2023-06-10T14:28:24;7.80;;;7.00;;
46463;SDS011;32161;48.148;-1.554;2023-06-10T14:30:52;6.68;;;6.07;;
46463;SDS011;32161;48.148;-1.554;2023-06-10T14:33:20;5.85;;;5.35;;